Time;durP1;ratioP1;P1;durP2;ratioP2;P2;SDS_P1;SDS_P2;PMS_P1;PMS_P2;Temp;Humidity;BMP_temperature;BMP_pressure;BME280_temperature;BME280_humidity;BME280_pressure;Samples;Min_cycle;Max_cycle;Signal;HPM_P1;HPM_P2
2021/10/26 00:01:08;;;;;;;8.88;3.53;;;;;;;;;;5074451;28;20032;-74
2021/10/26 00:03:36;;;;;;;10.32;4.40;;;20.20;99.90;;;;;;5075541;28;20081;-73
2021/10/26 00:06:04;;;;;;;8.95;4.15;;;20.00;99.90;;;;;;5075635;28;20145;-74
2021/10/26 00:08:31;;;;;;;9.20;4.32;;;;;;;;;;5074459;28;20481;-74
2021/10/26 00:10:58;;;;;;;9.05;4.07;;;19.90;99.90;;;;;;5075410;28;20027;-74
2021/10/26 00:13:26;;;;;;;12.80;4.20;;;20.00;99.90;;;;;;5075249;28;20051;-74
2021/10/26 00:15:54;;;;;;;8.40;3.70;;;19.80;99.90;;;;;;5075384;28;20036;-74
2021/10/26 00:18:21;;;;;;;9.55;3.78;;;19.90;99.90;;;;;;5073784;28;20525;-74
2021/10/26 00:20:48;;;;;;;7.88;3.75;;;20.10;99.90;;;;;;5074119;28;20485;-73
2021/10/26 00:23:16;;;;;;;7.72;3.80;;;20.40;99.90;;;;;;5073797;28;20029;-73
2021/10/26 00:25:44;;;;;;;6.53;3.70;;;21.10;99.90;;;;;;5074211;28;20016;-73
2021/10/26 00:28:11;;;;;;;10.05;4.20;;;21.70;99.90;;;;;;5075192;28;20527;-73
2021/10/26 00:30:39;;;;;;;7.55;3.95;;;21.80;99.90;;;;;;5073824;28;20016;-73
2021/10/26 00:33:06;;;;;;;8.15;3.38;;;22.30;99.90;;;;;;5073644;28;20021;-73
2021/10/26 00:35:33;;;;;;;8.57;3.92;;;22.60;99.90;;;;;;5073012;28;20055;-73
2021/10/26 00:38:01;;;;;;;10.18;4.07;;;22.80;99.90;;;;;;5073692;28;20025;-73
2021/10/26 00:40:30;;;;;;;8.57;3.60;;;23.00;99.90;;;;;;5074976;28;20027;-74
2021/10/26 00:42:57;;;;;;;8.88;3.90;;;23.10;99.90;;;;;;5074860;28;20024;-73
2021/10/26 00:45:25;;;;;;;6.43;3.30;;;22.90;99.90;;;;;;5074717;28;20031;-73
2021/10/26 00:47:52;;;;;;;7.97;3.80;;;22.60;99.90;;;;;;5073527;28;20016;-73
2021/10/26 00:50:20;;;;;;;9.63;4.13;;;22.20;99.90;;;;;;5074705;28;20104;-74
2021/10/26 00:52:47;;;;;;;8.07;3.75;;;21.70;99.90;;;;;;5074767;28;20052;-73
2021/10/26 00:55:15;;;;;;;6.65;3.38;;;21.20;99.90;;;;;;5073329;28;20194;-73
2021/10/26 00:57:43;;;;;;;8.18;3.65;;;21.30;99.90;;;;;;5074603;28;20073;-73
2021/10/26 01:00:12;;;;;;;6.25;3.30;;;21.80;99.90;;;;;;5073430;28;20397;-73
2021/10/26 01:02:43;;;;;;;9.45;3.30;;;21.90;99.90;;;;;;5056909;28;20431;-72
2021/10/26 01:05:11;;;;;;;6.75;3.22;;;22.00;99.90;;;;;;5073019;28;20158;-73
2021/10/26 01:07:38;;;;;;;9.35;3.22;;;21.40;99.90;;;;;;5074312;28;20036;-73
2021/10/26 01:10:09;;;;;;;;;;;21.60;99.90;;;;;;5074846;28;20024;-73
2021/10/26 01:12:38;;;;;;;5.90;2.90;;;22.40;99.90;;;;;;5073121;28;19955;-73
2021/10/26 01:15:06;;;;;;;5.22;3.30;;;22.60;99.90;;;;;;5072948;28;20032;-73
2021/10/26 01:17:33;;;;;;;6.13;3.38;;;23.30;99.90;;;;;;5073999;28;20060;-72
2021/10/26 01:20:03;;;;;;;8.73;3.28;;;23.30;99.90;;;;;;5074092;28;20024;-72
2021/10/26 01:22:34;;;;;;;7.07;3.35;;;23.50;99.70;;;;;;5074136;28;20100;-73
2021/10/26 01:25:02;;;;;;;7.97;3.55;;;23.60;98.80;;;;;;5074091;28;20025;-73
2021/10/26 01:27:29;;;;;;;8.35;3.50;;;23.20;99.40;;;;;;5072646;28;20111;-73
2021/10/26 01:29:56;;;;;;;5.10;2.85;;;22.80;99.50;;;;;;5074018;28;20024;-73
2021/10/26 01:32:24;;;;;;;5.22;3.17;;;23.30;99.90;;;;;;5072570;28;20025;-73
2021/10/26 01:34:51;;;;;;;5.07;3.20;;;23.50;99.30;;;;;;5072553;28;20390;-73
2021/10/26 01:37:18;;;;;;;6.10;3.50;;;23.70;98.60;;;;;;5073762;28;20385;-72
2021/10/26 01:39:46;;;;;;;7.25;3.10;;;23.60;99.00;;;;;;5073818;28;20071;-73
2021/10/26 01:42:13;;;;;;;6.65;3.38;;;23.60;99.30;;;;;;5073743;28;20024;-73
2021/10/26 01:44:41;;;;;;;7.43;3.33;;;23.10;99.60;;;;;;5072200;28;20119;-73
2021/10/26 01:47:08;;;;;;;5.78;3.22;;;22.50;99.80;;;;;;5072741;28;20029;-73
2021/10/26 01:49:35;;;;;;;7.13;3.83;;;22.10;99.90;;;;;;5072251;28;20097;-74
2021/10/26 01:52:03;;;;;;;5.45;2.95;;;22.30;99.90;;;;;;5072248;28;20056;-73
2021/10/26 01:54:36;;;;;;;8.07;3.40;;;22.70;99.60;;;;;;5073573;28;20020;-73
2021/10/26 01:57:08;;;;;;;11.25;3.58;;;22.40;99.90;;;;;;5072292;28;20028;-73
2021/10/26 01:59:36;;;;;;;6.53;3.35;;;22.50;99.90;;;;;;5073477;28;20028;-74
2021/10/26 02:02:04;;;;;;;8.32;3.00;;;23.10;99.80;;;;;;5073393;28;20497;-73
2021/10/26 02:04:31;;;;;;;7.30;3.20;;;23.00;99.70;;;;;;5073287;28;20024;-73
2021/10/26 02:06:58;;;;;;;6.43;2.97;;;22.80;99.40;;;;;;5073358;28;20012;-72
2021/10/26 02:09:26;;;;;;;5.30;2.97;;;22.80;99.30;;;;;;5071976;28;20052;-72
2021/10/26 02:11:53;;;;;;;5.45;3.15;;;22.30;99.30;;;;;;5073390;28;20492;-72
2021/10/26 02:14:21;;;;;;;4.90;2.97;;;22.60;99.50;;;;;;5073200;28;20020;-73
2021/10/26 02:16:49;;;;;;;4.65;3.00;;;22.80;99.30;;;;;;5071711;28;20102;-73
2021/10/26 02:19:16;;;;;;;5.28;2.80;;;23.10;98.90;;;;;;5055358;28;20119;-73
2021/10/26 02:21:44;;;;;;;5.13;2.58;;;23.50;98.90;;;;;;5073142;28;20024;-72
2021/10/26 02:24:11;;;;;;;4.43;3.03;;;23.50;99.00;;;;;;5072951;28;20032;-72
2021/10/26 02:26:38;;;;;;;6.85;3.10;;;23.60;98.70;;;;;;5071738;28;20477;-73
2021/10/26 02:29:07;;;;;;;3.95;2.80;;;23.50;99.00;;;;;;5073214;28;20024;-73
2021/10/26 02:31:35;;;;;;;5.65;2.90;;;23.90;98.70;;;;;;5071693;28;20115;-73
2021/10/26 02:34:02;;;;;;;5.45;2.70;;;24.20;98.20;;;;;;5071713;28;20463;-73
2021/10/26 02:36:29;;;;;;;4.95;2.70;;;23.90;98.20;;;;;;5072942;28;20052;-73
2021/10/26 02:38:57;;;;;;;6.72;3.20;;;24.00;99.10;;;;;;5071663;28;20024;-73
2021/10/26 02:41:24;;;;;;;7.60;3.05;;;24.10;98.40;;;;;;5071818;28;20456;-73
2021/10/26 02:43:52;;;;;;;5.38;3.15;;;24.20;98.10;;;;;;5072764;28;20440;-73
2021/10/26 02:46:20;;;;;;;7.07;2.90;;;24.40;98.00;;;;;;5071678;28;20048;-74
2021/10/26 02:48:48;;;;;;;5.53;3.03;;;24.50;97.10;;;;;;5073054;28;20021;-73
2021/10/26 02:51:16;;;;;;;5.13;2.85;;;24.50;96.90;;;;;;5072861;28;20017;-73
2021/10/26 02:53:45;;;;;;;8.18;3.50;;;24.30;97.20;;;;;;5072815;28;20028;-73
2021/10/26 02:56:12;;;;;;;6.93;3.05;;;24.10;97.70;;;;;;5071471;28;20039;-74
2021/10/26 02:58:40;;;;;;;6.80;2.95;;;23.90;97.30;;;;;;5073053;28;20020;-73
2021/10/26 03:01:10;;;;;;;4.93;2.88;;;23.90;97.70;;;;;;5076776;28;20089;-73
2021/10/26 03:03:38;;;;;;;7.45;3.05;;;23.90;98.00;;;;;;5075260;28;20074;-73
2021/10/26 03:06:06;;;;;;;6.00;3.08;;;24.20;97.50;;;;;;5075471;28;20049;-73
2021/10/26 03:08:33;;;;;;;4.93;2.70;;;24.20;97.20;;;;;;5076724;28;20055;-73
2021/10/26 03:11:01;;;;;;;4.95;3.17;;;24.30;97.20;;;;;;5075361;28;20024;-73
2021/10/26 03:13:29;;;;;;;7.97;3.30;;;23.70;97.10;;;;;;5076653;28;20024;-72
2021/10/26 03:15:57;;;;;;;4.35;2.78;;;23.90;97.60;;;;;;5076500;28;20055;-72
2021/10/26 03:18:24;;;;;;;6.45;2.88;;;23.90;98.40;;;;;;5076356;28;20567;-73
2021/10/26 03:20:52;;;;;;;5.18;3.15;;;23.90;97.40;;;;;;5076399;28;20557;-73
2021/10/26 03:23:20;;;;;;;5.75;2.95;;;24.10;97.40;;;;;;5075715;28;20489;-73
2021/10/26 03:25:47;;;;;;;6.43;2.80;;;23.90;97.00;;;;;;5075087;28;20021;-73
2021/10/26 03:28:14;;;;;;;5.55;2.83;;;23.80;98.00;;;;;;5076464;28;20013;-72
2021/10/26 03:30:42;;;;;;;7.68;3.00;;;24.00;97.60;;;;;;5074819;28;20024;-73
2021/10/26 03:33:10;;;;;;;5.88;3.00;;;23.90;97.30;;;;;;5074888;28;20495;-72
2021/10/26 03:35:37;;;;;;;6.63;2.90;;;24.00;96.50;;;;;;5074821;28;20473;-74
2021/10/26 03:38:06;;;;;;;4.57;3.28;;;23.90;96.70;;;;;;5074858;28;20495;-73
2021/10/26 03:40:33;;;;;;;5.60;3.15;;;24.10;97.30;;;;;;5074735;28;20020;-72
2021/10/26 03:43:01;;;;;;;8.45;3.53;;;24.20;97.30;;;;;;5075905;28;20023;-73
2021/10/26 03:45:28;;;;;;;5.25;3.22;;;23.90;97.70;;;;;;5074399;28;20060;-73
2021/10/26 03:47:55;;;;;;;5.97;3.03;;;24.20;98.10;;;;;;5074596;28;20024;-72
2021/10/26 03:50:23;;;;;;;7.20;3.28;;;24.00;96.90;;;;;;5074551;28;20382;-73
2021/10/26 03:52:50;;;;;;;4.90;3.72;;;23.60;97.90;;;;;;5074265;28;20023;-73
2021/10/26 03:55:20;;;;;;;6.70;3.15;;;24.00;97.40;;;;;;5075907;28;20487;-73
2021/10/26 03:57:47;;;;;;;6.20;3.17;;;24.10;97.30;;;;;;5074445;28;20039;-73
2021/10/26 04:00:15;;;;;;;5.72;3.20;;;24.00;97.00;;;;;;5075661;28;20531;-74
2021/10/26 04:02:43;;;;;;;5.40;3.08;;;23.30;97.60;;;;;;5075703;28;20113;-73
2021/10/26 04:05:21;;;;;;;3.58;2.95;;;22.90;98.20;;;;;;5074107;28;20543;-74
2021/10/26 04:07:56;;;;;;;5.78;3.50;;;23.10;98.20;;;;;;5074315;28;20024;-73
2021/10/26 04:10:42;;;;;;;5.47;3.47;;;23.40;98.10;;;;;;5073288;28;20478;-73
2021/10/26 04:13:10;;;;;;;6.50;3.42;;;23.70;98.00;;;;;;5073988;28;20031;-74
2021/10/26 04:15:37;;;;;;;6.55;4.25;;;23.40;97.70;;;;;;5074061;28;20033;-74
2021/10/26 04:18:05;;;;;;;5.07;3.45;;;23.20;97.80;;;;;;5075097;28;20051;-73
2021/10/26 04:20:32;;;;;;;4.22;3.10;;;23.70;98.20;;;;;;5073957;28;20569;-73
2021/10/26 04:23:00;;;;;;;6.05;4.10;;;23.70;97.30;;;;;;5074071;28;20025;-73
2021/10/26 04:25:28;;;;;;;4.43;3.22;;;23.40;98.00;;;;;;5057198;28;20436;-74
2021/10/26 04:27:55;;;;;;;7.57;3.58;;;23.10;97.60;;;;;;5075084;28;20020;-73
2021/10/26 04:30:23;;;;;;;4.78;3.55;;;22.50;99.10;;;;;;5074952;28;20017;-73
2021/10/26 04:32:50;;;;;;;6.35;3.95;;;22.40;99.50;;;;;;5074856;28;20477;-73
2021/10/26 04:35:17;;;;;;;5.07;3.70;;;22.70;99.00;;;;;;5074960;28;20024;-73
2021/10/26 04:37:45;;;;;;;4.72;3.58;;;23.00;98.70;;;;;;5073623;28;20032;-73
2021/10/26 04:40:13;;;;;;;6.05;3.90;;;23.40;98.50;;;;;;5075020;28;20028;-73
2021/10/26 04:42:41;;;;;;;5.82;3.70;;;23.50;98.50;;;;;;5074791;28;20020;-73
2021/10/26 04:45:09;;;;;;;4.13;3.22;;;23.50;98.20;;;;;;5073408;28;20036;-75
2021/10/26 04:47:37;;;;;;;5.72;3.60;;;23.00;98.70;;;;;;5073260;28;20032;-74
2021/10/26 04:50:05;;;;;;;4.13;3.30;;;23.10;98.80;;;;;;5073565;28;20016;-74
2021/10/26 04:52:32;;;;;;;5.43;3.75;;;23.10;98.40;;;;;;5073417;28;20025;-73
2021/10/26 04:55:00;;;;;;;6.47;3.88;;;22.60;99.60;;;;;;5073331;28;20025;-74
2021/10/26 04:57:28;;;;;;;5.50;3.45;;;22.10;99.90;;;;;;5073260;28;20481;-74
2021/10/26 04:59:56;;;;;;;5.57;3.65;;;21.70;99.90;;;;;;5073233;28;20024;-73
2021/10/26 05:02:23;;;;;;;6.30;3.95;;;21.50;99.90;;;;;;5073116;28;20040;-74
2021/10/26 05:04:50;;;;;;;7.35;4.28;;;21.60;99.90;;;;;;5072970;28;20024;-74
2021/10/26 05:07:18;;;;;;;4.75;3.40;;;21.50;99.90;;;;;;5074464;28;20060;-73
2021/10/26 05:09:46;;;;;;;5.70;4.20;;;21.60;99.90;;;;;;5056372;28;20047;-74
2021/10/26 05:12:13;;;;;;;3.78;3.25;;;22.00;99.90;;;;;;5072957;28;20477;-73
2021/10/26 05:14:41;;;;;;;6.50;4.35;;;22.10;99.90;;;;;;5072882;28;20477;-73
2021/10/26 05:17:09;;;;;;;5.72;4.18;;;22.30;99.90;;;;;;5074007;28;20048;-72
2021/10/26 05:19:37;;;;;;;5.47;4.10;;;22.50;99.60;;;;;;5072733;28;20028;-73
2021/10/26 05:22:04;;;;;;;5.95;3.90;;;22.60;99.50;;;;;;5072550;28;20036;-74
2021/10/26 05:24:34;;;;;;;5.50;3.20;;;22.60;99.50;;;;;;5073888;28;20029;-73
2021/10/26 05:27:01;;;;;;;7.38;3.15;;;22.70;99.30;;;;;;5073943;28;20025;-74
2021/10/26 05:29:32;;;;;;;4.57;3.13;;;22.60;99.40;;;;;;5073787;28;20135;-73
2021/10/26 05:32:00;;;;;;;5.10;2.83;;;22.00;99.90;;;;;;5072575;28;20032;-73
2021/10/26 05:34:28;;;;;;;3.88;3.05;;;21.60;99.90;;;;;;5072416;28;20477;-73
2021/10/26 05:36:57;;;;;;;7.93;3.35;;;21.90;99.90;;;;;;5073694;28;20090;-73
2021/10/26 05:39:24;;;;;;;5.72;3.60;;;22.20;99.90;;;;;;5072349;28;20115;-73
2021/10/26 05:41:52;;;;;;;4.70;3.40;;;22.40;99.90;;;;;;5072333;28;20031;-73
2021/10/26 05:44:19;;;;;;;6.55;3.63;;;22.10;99.90;;;;;;5072382;28;20117;-74
2021/10/26 05:46:46;;;;;;;6.97;3.60;;;22.00;99.90;;;;;;5073485;28;20023;-72
2021/10/26 05:49:14;;;;;;;6.88;3.80;;;22.00;99.90;;;;;;5072122;28;20115;-73
2021/10/26 05:51:41;;;;;;;5.13;3.53;;;22.10;99.90;;;;;;5072114;28;20063;-74
2021/10/26 05:54:09;;;;;;;6.10;3.38;;;22.30;99.80;;;;;;5071986;28;20549;-73
2021/10/26 05:56:37;;;;;;;5.95;3.10;;;22.30;99.70;;;;;;5072027;28;20457;-74
2021/10/26 05:59:05;;;;;;;3.95;3.33;;;22.40;99.80;;;;;;5071876;28;20024;-73
2021/10/26 06:01:32;;;;;;;4.88;3.90;;;22.60;99.30;;;;;;5055425;28;20136;-74
2021/10/26 06:04:02;;;;;;;3.90;3.10;;;22.60;99.90;;;;;;5072940;28;20096;-74
2021/10/26 06:06:30;;;;;;;3.60;2.95;;;22.30;99.90;;;;;;5073119;28;20039;-74
2021/10/26 06:08:57;;;;;;;5.60;3.30;;;22.10;99.90;;;;;;5073096;28;20013;-74
2021/10/26 06:11:25;;;;;;;7.35;3.10;;;22.50;99.90;;;;;;5073211;28;20024;-74
2021/10/26 06:14:04;;;;;;;4.07;2.90;;;21.90;99.90;;;;;;5071802;28;20374;-74
2021/10/26 06:16:34;;;;;;;5.28;2.85;;;21.70;99.90;;;;;;5073042;28;20016;-73
2021/10/26 06:19:03;;;;;;;3.20;2.80;;;22.00;99.90;;;;;;5071690;28;20032;-73
2021/10/26 06:21:31;;;;;;;6.07;2.60;;;22.30;99.90;;;;;;5071760;28;20033;-74
2021/10/26 06:24:00;;;;;;;4.45;2.40;;;22.70;99.90;;;;;;5072938;28;20027;-75
2021/10/26 06:26:29;;;;;;;6.03;3.00;;;22.90;98.80;;;;;;5055595;28;20126;-74
2021/10/26 06:28:57;;;;;;;4.07;2.70;;;22.50;99.00;;;;;;5071635;28;20074;-74
2021/10/26 06:31:27;;;;;;;6.30;3.05;;;21.90;99.90;;;;;;5073009;28;20046;-74
2021/10/26 06:33:55;;;;;;;4.10;2.90;;;22.40;99.90;;;;;;5071070;28;20102;-74
2021/10/26 06:36:22;;;;;;;5.50;3.10;;;22.20;99.90;;;;;;5071626;28;20025;-74
2021/10/26 06:38:51;;;;;;;5.10;2.92;;;22.10;99.90;;;;;;5071564;28;20078;-74
2021/10/26 06:41:19;;;;;;;5.20;3.15;;;22.40;99.90;;;;;;5072760;28;20017;-74
2021/10/26 06:43:48;;;;;;;4.30;2.90;;;22.20;99.90;;;;;;5071447;28;20034;-73
2021/10/26 06:46:19;;;;;;;4.82;3.03;;;22.20;99.90;;;;;;5071504;28;20029;-71
2021/10/26 06:48:47;;;;;;;4.45;2.60;;;22.00;99.90;;;;;;5072955;28;20437;-70
2021/10/26 06:51:14;;;;;;;3.13;2.30;;;22.40;99.90;;;;;;5072821;28;20025;-70
2021/10/26 06:53:41;;;;;;;4.95;2.88;;;21.90;99.90;;;;;;5071299;28;20028;-71
2021/10/26 06:56:18;;;;;;;7.43;2.92;;;21.30;99.90;;;;;;5071498;28;20035;-71
2021/10/26 06:58:45;;;;;;;3.95;3.08;;;20.80;99.90;;;;;;5071369;28;20120;-70
2021/10/26 07:01:13;;;;;;;6.15;3.40;;;20.80;99.90;;;;;;5072729;28;20024;-70
2021/10/26 07:03:41;;;;;;;5.93;3.47;;;20.50;99.90;;;;;;5072488;28;20037;-70
2021/10/26 07:06:08;;;;;;;5.38;3.25;;;20.30;99.90;;;;;;5071278;28;20017;-71
2021/10/26 07:08:36;;;;;;;4.97;3.33;;;20.10;99.90;;;;;;5071346;28;20039;-71
2021/10/26 07:11:04;;;;;;;4.72;3.20;;;20.00;99.90;;;;;;5072517;28;20166;-70
2021/10/26 07:13:35;;;;;;;7.72;4.13;;;20.00;99.90;;;;;;5054539;28;20481;-71
2021/10/26 07:16:02;;;;;;;5.47;3.63;;;19.80;99.90;;;;;;5071203;28;20017;-70
2021/10/26 07:18:30;;;;;;;3.70;3.28;;;19.60;99.90;;;;;;5071041;28;20052;-70
2021/10/26 07:20:57;;;;;;;6.25;3.40;;;19.40;99.90;;;;;;5071154;28;20481;-71
2021/10/26 07:23:25;;;;;;;6.03;3.30;;;19.40;99.90;;;;;;5072342;28;20189;-71
2021/10/26 07:25:54;;;;;;;7.20;3.58;;;19.30;99.90;;;;;;5071110;28;20027;-70
2021/10/26 07:28:22;;;;;;;6.10;3.13;;;19.20;99.90;;;;;;5072394;28;20048;-71
2021/10/26 07:30:50;;;;;;;4.97;3.47;;;19.10;99.90;;;;;;5072324;28;20017;-71
2021/10/26 07:33:22;;;;;;;5.72;4.00;;;19.00;99.90;;;;;;5072170;28;20020;-71
2021/10/26 07:35:52;;;;;;;6.10;3.65;;;18.50;99.90;;;;;;5070973;28;20048;-71
2021/10/26 07:38:30;;;;;;;5.30;3.40;;;18.80;99.90;;;;;;5071069;28;20458;-69
2021/10/26 07:40:59;;;;;;;4.05;3.60;;;18.70;99.90;;;;;;5072251;28;20109;-71
2021/10/26 07:43:33;;;;;;;4.28;3.80;;;18.60;99.90;;;;;;5072160;28;20500;-69
2021/10/26 07:46:00;;;;;;;6.88;4.25;;;18.60;99.90;;;;;;5076035;28;20046;-69
2021/10/26 07:48:29;;;;;;;7.22;3.60;;;18.50;99.90;;;;;;5074492;28;20386;-70
2021/10/26 07:51:00;;;;;;;6.50;4.00;;;18.30;99.90;;;;;;5074381;28;20454;-69
2021/10/26 07:53:29;;;;;;;8.45;4.85;;;18.10;99.90;;;;;;5075880;28;20027;-71
2021/10/26 07:55:57;;;;;;;3.95;3.50;;;18.10;99.90;;;;;;5075690;28;20027;-72
2021/10/26 07:58:26;;;;;;;5.50;3.65;;;18.00;99.90;;;;;;5075742;28;20025;-70
2021/10/26 08:00:54;;;;;;;6.43;4.10;;;17.90;99.90;;;;;;5075576;28;20048;-69
2021/10/26 08:03:22;;;;;;;6.30;4.03;;;17.90;99.90;;;;;;5074281;28;20017;-71
2021/10/26 08:05:53;;;;;;;8.00;4.40;;;17.90;99.90;;;;;;5074126;28;20521;-71
2021/10/26 08:08:21;;;;;;;7.50;4.18;;;17.80;99.90;;;;;;5075588;28;20154;-71
2021/10/26 08:10:48;;;;;;;6.65;4.00;;;17.80;99.90;;;;;;5075434;28;20397;-71
2021/10/26 08:13:16;;;;;;;6.70;4.07;;;17.70;99.90;;;;;;5075266;28;20107;-70
2021/10/26 08:15:44;;;;;;;6.00;3.85;;;17.60;99.90;;;;;;5074106;28;20031;-70
2021/10/26 08:18:11;;;;;;;10.13;4.32;;;17.60;99.90;;;;;;5075117;28;20101;-70
2021/10/26 08:20:41;;;;;;;4.45;3.90;;;17.60;99.90;;;;;;5075414;28;20032;-71
2021/10/26 08:23:09;;;;;;;9.23;4.80;;;17.60;99.90;;;;;;5073770;28;20028;-71
2021/10/26 08:25:40;;;;;;;6.18;4.05;;;17.60;99.90;;;;;;5073839;28;20078;-71
2021/10/26 08:28:13;;;;;;;6.50;4.28;;;17.50;99.90;;;;;;5075193;28;20021;-71
2021/10/26 08:36:00;;;;;;;6.22;4.28;;;17.40;99.90;;;;;;5075018;28;20016;-69
2021/10/26 08:38:27;;;;;;;6.63;4.40;;;17.30;99.90;;;;;;5075017;28;20535;-69
2021/10/26 08:40:54;;;;;;;9.20;4.40;;;17.30;99.90;;;;;;5074907;28;20074;-70
2021/10/26 08:43:23;;;;;;;6.25;4.50;;;17.20;99.90;;;;;;5073440;28;20020;-70
2021/10/26 08:45:55;;;;;;;6.20;4.63;;;17.20;99.90;;;;;;5074669;28;20062;-70
2021/10/26 08:48:25;;;;;;;4.63;4.25;;;17.20;99.90;;;;;;5073502;28;20028;-69
2021/10/26 08:50:56;;;;;;;6.13;4.55;;;17.10;99.90;;;;;;5073426;28;20103;-69
2021/10/26 08:53:25;;;;;;;7.43;5.45;;;17.20;99.90;;;;;;5073374;28;20032;-71
2021/10/26 08:55:57;;;;;;;9.27;4.72;;;17.20;99.90;;;;;;5074167;28;20017;-71
2021/10/26 08:58:27;;;;;;;8.88;4.78;;;17.20;99.90;;;;;;5073501;28;20116;-72
2021/10/26 09:00:58;;;;;;;8.23;4.82;;;17.20;99.90;;;;;;5073145;28;20062;-71
2021/10/26 09:03:30;;;;;;;7.53;4.63;;;17.10;99.90;;;;;;5073120;28;20119;-71
2021/10/26 09:05:57;;;;;;;7.07;4.70;;;17.00;99.90;;;;;;5074296;28;20104;-70
2021/10/26 09:08:26;;;;;;;5.90;4.38;;;17.00;99.90;;;;;;5074419;28;20487;-70
2021/10/26 09:10:57;;;;;;;5.22;4.53;;;17.00;99.90;;;;;;5073111;28;20107;-69
2021/10/26 09:16:40;;;;;;;5.63;5.10;;;16.90;99.90;;;;;;5074240;28;20099;-71
2021/10/26 09:19:38;;;;;;;6.22;4.60;;;16.90;99.90;;;;;;5072864;28;20060;-70
2021/10/26 09:22:06;;;;;;;6.50;5.20;;;16.80;99.90;;;;;;5074169;28;20036;-70
2021/10/26 09:24:34;;;;;;;5.90;4.97;;;16.80;99.90;;;;;;5073992;28;20119;-69
2021/10/26 09:27:04;;;;;;;10.07;5.10;;;16.70;99.90;;;;;;5074054;28;20016;-69
2021/10/26 09:29:48;;;;;;;6.25;5.53;;;16.70;99.90;;;;;;5074091;28;20024;-70
2021/10/26 09:32:35;;;;;;;10.10;5.50;;;16.60;99.90;;;;;;5073860;28;20500;-71
2021/10/26 09:35:08;;;;;;;6.18;5.50;;;16.60;99.90;;;;;;5073793;28;20038;-70
2021/10/26 09:37:38;;;;;;;6.45;5.30;;;16.50;99.90;;;;;;5072410;28;20024;-72
2021/10/26 09:40:08;;;;;;;8.18;5.25;;;16.50;99.90;;;;;;5073692;28;20099;-72
2021/10/26 09:42:46;;;;;;;5.45;4.95;;;16.50;99.90;;;;;;5073668;28;20029;-70
2021/10/26 09:45:34;;;;;;;6.38;4.85;;;16.50;99.90;;;;;;5073527;28;20020;-70
2021/10/26 09:48:20;;;;;;;6.50;5.35;;;16.50;99.90;;;;;;5073673;28;20090;-70
2021/10/26 09:50:48;;;;;;;6.80;5.15;;;16.50;99.90;;;;;;5073524;28;20410;-71
2021/10/26 09:53:17;;;;;;;6.22;5.32;;;16.40;99.90;;;;;;5073373;28;20028;-70
2021/10/26 09:55:51;;;;;;;5.95;5.35;;;16.40;99.90;;;;;;5072215;28;20028;-71
2021/10/26 09:58:25;;;;;;;8.23;5.20;;;16.40;99.90;;;;;;5073385;28;20024;-71
2021/10/26 10:01:09;;;;;;;6.47;5.32;;;16.50;99.90;;;;;;5073266;28;20025;-71
2021/10/26 10:03:36;;;;;;;8.23;5.50;;;16.60;99.90;;;;;;5073196;28;20442;-71
2021/10/26 10:06:06;;;;;;;6.45;5.50;;;16.70;99.90;;;;;;5073300;28;20095;-71
2021/10/26 10:08:40;;;;;;;5.72;4.90;;;16.80;99.90;;;;;;5072765;28;20013;-70
2021/10/26 10:11:09;;;;;;;6.03;5.57;;;16.90;99.90;;;;;;5071899;28;20056;-69
2021/10/26 10:13:48;;;;;;;7.05;5.05;;;17.10;99.90;;;;;;5071813;28;20044;-69
2021/10/26 10:16:17;;;;;;;5.50;4.95;;;17.10;99.90;;;;;;5073236;28;20458;-70
2021/10/26 10:18:49;;;;;;;7.22;5.40;;;17.20;99.90;;;;;;5072911;28;20541;-71
2021/10/26 10:21:26;;;;;;;7.28;5.88;;;17.30;99.90;;;;;;5073032;28;20021;-73
2021/10/26 10:23:54;;;;;;;7.53;5.40;;;;;;;;;;5071888;28;20436;-71
2021/10/26 10:26:27;;;;;;;7.40;4.97;;;17.30;99.90;;;;;;5071763;28;20028;-74
2021/10/26 10:28:56;;;;;;;6.25;4.93;;;17.50;99.90;;;;;;5073174;28;20024;-73
2021/10/26 10:31:26;;;;;;;8.00;5.03;;;17.40;99.90;;;;;;5071561;28;20024;-74
2021/10/26 10:33:55;;;;;;;6.00;5.27;;;17.50;99.90;;;;;;5071642;28;20032;-73
2021/10/26 10:36:23;;;;;;;5.53;4.90;;;17.50;99.90;;;;;;5071555;28;20079;-72
2021/10/26 10:39:06;;;;;;;5.07;4.47;;;17.50;99.90;;;;;;5071647;28;20401;-72
2021/10/26 10:41:36;;;;;;;5.38;4.88;;;17.50;99.90;;;;;;5071584;28;20504;-73
2021/10/26 10:44:23;;;;;;;7.05;5.38;;;17.60;99.90;;;;;;5071492;28;20025;-71
2021/10/26 10:46:59;;;;;;;8.15;4.72;;;17.60;99.90;;;;;;5071214;28;20092;-72
2021/10/26 10:49:36;;;;;;;6.72;4.72;;;17.60;99.90;;;;;;5071567;28;20016;-72
2021/10/26 10:52:08;;;;;;;7.07;4.68;;;17.60;99.90;;;;;;5072834;28;20142;-72
2021/10/26 10:57:22;;;;;;;7.00;4.60;;;17.60;99.90;;;;;;5072869;28;20059;-72
2021/10/26 10:59:57;;;;;;;8.02;4.82;;;17.60;99.90;;;;;;5071404;28;20036;-71
2021/10/26 11:02:49;;;;;;;6.70;4.63;;;17.60;99.90;;;;;;5072729;28;20025;-72
2021/10/26 11:05:49;;;;;;;6.40;4.03;;;17.60;99.90;;;;;;5067632;28;20485;-72
2021/10/26 11:08:36;;;;;;;7.57;4.68;;;17.60;99.90;;;;;;5050073;28;20029;-73
2021/10/26 11:11:03;;;;;;;6.35;4.70;;;17.60;99.90;;;;;;5072537;28;20045;-73
2021/10/26 11:13:35;;;;;;;5.78;4.80;;;17.60;99.90;;;;;;5072658;28;20485;-73
2021/10/26 11:16:09;;;;;;;6.07;4.72;;;17.50;99.90;;;;;;5071337;28;20032;-74
2021/10/26 11:18:56;;;;;;;4.60;4.20;;;17.50;99.90;;;;;;5072654;28;20048;-74
2021/10/26 11:21:26;;;;;;;7.93;4.50;;;17.50;99.90;;;;;;5076559;28;20029;-73
2021/10/26 11:24:01;;;;;;;7.20;4.40;;;17.40;99.90;;;;;;5076334;28;20104;-72
2021/10/26 11:26:39;;;;;;;8.18;4.50;;;17.40;99.90;;;;;;5076364;28;20100;-73
2021/10/26 11:29:14;;;;;;;5.00;4.50;;;17.50;99.90;;;;;;5075015;28;20021;-73
2021/10/26 11:31:49;;;;;;;7.07;4.40;;;17.40;99.90;;;;;;5075019;28;20048;-73
2021/10/26 11:34:33;;;;;;;7.22;4.80;;;17.40;99.90;;;;;;5076251;28;20107;-72
2021/10/26 11:37:11;;;;;;;7.15;4.55;;;17.40;99.90;;;;;;5076122;28;20029;-72
2021/10/26 11:39:40;;;;;;;6.90;5.00;;;17.40;99.90;;;;;;5076223;28;20470;-71
2021/10/26 11:42:17;;;;;;;7.25;4.85;;;17.40;99.90;;;;;;5074683;28;20035;-71
2021/10/26 11:44:45;;;;;;;6.05;4.57;;;17.40;99.90;;;;;;5076059;28;20111;-71
2021/10/26 11:47:12;;;;;;;5.70;4.45;;;17.50;99.90;;;;;;5075933;28;20028;-72
2021/10/26 11:49:39;;;;;;;6.95;5.00;;;17.50;99.90;;;;;;5076027;28;20473;-71
2021/10/26 11:52:07;;;;;;;7.90;4.93;;;17.50;99.90;;;;;;5075907;28;20469;-72
2021/10/26 11:54:38;;;;;;;6.68;4.55;;;17.50;99.90;;;;;;5075808;28;20165;-72
2021/10/26 11:57:10;;;;;;;5.20;4.68;;;17.50;99.90;;;;;;5075975;28;20058;-72
2021/10/26 11:59:39;;;;;;;7.28;4.80;;;17.50;99.90;;;;;;5074474;28;20036;-72
2021/10/26 12:02:10;;;;;;;8.90;5.32;;;17.50;99.90;;;;;;5075685;28;20021;-72
2021/10/26 12:04:40;;;;;;;6.50;4.82;;;17.50;99.90;;;;;;5074202;28;20033;-72
2021/10/26 12:07:10;;;;;;;7.75;5.00;;;17.60;99.90;;;;;;5075626;28;20028;-72
2021/10/26 12:09:45;;;;;;;12.80;5.57;;;17.60;99.90;;;;;;5074257;28;20028;-72
2021/10/26 12:12:20;;;;;;;7.25;5.22;;;17.60;99.90;;;;;;5074249;28;20032;-72
2021/10/26 12:14:58;;;;;;;9.07;5.15;;;17.50;99.90;;;;;;5075420;28;20029;-72
2021/10/26 12:17:29;;;;;;;6.15;5.07;;;17.50;99.90;;;;;;5075249;28;20170;-72
2021/10/26 12:20:12;;;;;;;6.35;4.40;;;17.50;99.90;;;;;;5075719;28;20103;-71
2021/10/26 12:22:43;;;;;;;7.95;4.72;;;17.50;99.90;;;;;;5074132;28;20083;-72
2021/10/26 12:25:13;;;;;;;9.65;4.88;;;17.50;99.90;;;;;;5075281;28;20405;-72
2021/10/26 12:27:46;;;;;;;5.22;4.70;;;17.50;99.90;;;;;;5075272;28;20389;-72
2021/10/26 12:30:17;;;;;;;6.82;4.80;;;17.40;99.90;;;;;;5074954;28;20060;-72
2021/10/26 12:32:48;;;;;;;7.15;5.18;;;17.40;99.90;;;;;;5074945;28;20017;-70
2021/10/26 12:35:16;;;;;;;6.35;5.00;;;17.60;99.90;;;;;;5075194;28;20036;-70
2021/10/26 12:37:43;;;;;;;5.43;4.38;;;17.50;99.90;;;;;;5073840;28;20056;-70
2021/10/26 12:40:20;;;;;;;4.90;4.50;;;17.60;99.90;;;;;;5073676;28;20031;-71
2021/10/26 12:43:05;;;;;;;5.68;4.13;;;17.60;99.90;;;;;;5074949;28;20477;-71
2021/10/26 12:45:35;;;;;;;5.47;4.25;;;17.60;99.90;;;;;;5074960;28;20477;-71
2021/10/26 12:48:06;;;;;;;8.68;4.38;;;17.60;99.90;;;;;;5073575;28;20052;-71
2021/10/26 12:50:52;;;;;;;7.22;4.85;;;17.60;99.90;;;;;;5073545;28;20025;-71
2021/10/26 12:53:40;;;;;;;6.65;4.78;;;17.50;99.90;;;;;;5074787;28;20025;-72
2021/10/26 12:56:27;;;;;;;12.18;6.13;;;17.60;99.90;;;;;;5074737;28;20025;-71
2021/10/26 12:59:09;;;;;;;6.10;4.70;;;17.60;99.90;;;;;;5074869;28;20120;-70
2021/10/26 13:01:39;;;;;;;6.50;4.40;;;17.50;99.90;;;;;;5074583;28;20016;-71
2021/10/26 13:04:24;;;;;;;5.03;4.37;;;17.60;99.90;;;;;;5074385;28;20020;-70
2021/10/26 13:06:54;;;;;;;6.20;4.40;;;17.60;99.90;;;;;;5074410;28;20268;-70
2021/10/26 13:09:42;;;;;;;5.07;4.30;;;17.60;99.90;;;;;;5073130;28;20021;-71
2021/10/26 13:12:32;;;;;;;5.80;4.30;;;17.60;99.90;;;;;;5073090;28;20121;-71
2021/10/26 13:15:17;;;;;;;4.82;4.35;;;17.50;99.90;;;;;;5074392;28;20024;-71